sensor_id;sensor_type;location;lat;lon;timestamp;P1;durP1;ratioP1;P2;durP2;ratioP2
22881;SDS011;11608;50.894;5.296;2022-08-19T00:02:06;41.50;;;38.20;;
22881;SDS011;11608;50.894;5.296;2022-08-19T00:04:33;41.67;;;38.25;;
22881;SDS011;11608;50.894;5.296;2022-08-19T00:07:03;41.53;;;38.22;;
22881;SDS011;11608;50.894;5.296;2022-08-19T00:09:29;42.95;;;39.45;;
22881;SDS011;11608;50.894;5.296;2022-08-19T00:11:56;45.45;;;41.55;;
22881;SDS011;11608;50.894;5.296;2022-08-19T00:14:23;45.10;;;41.33;;
22881;SDS011;11608;50.894;5.296;2022-08-19T00:16:49;44.35;;;40.80;;
22881;SDS011;11608;50.894;5.296;2022-08-19T00:19:19;48.63;;;44.67;;
22881;SDS011;11608;50.894;5.296;2022-08-19T00:21:45;48.55;;;44.55;;
22881;SDS011;11608;50.894;5.296;2022-08-19T00:24:12;45.08;;;41.28;;
22881;SDS011;11608;50.894;5.296;2022-08-19T00:26:39;47.90;;;43.83;;
22881;SDS011;11608;50.894;5.296;2022-08-19T00:29:05;43.28;;;39.67;;
22881;SDS011;11608;50.894;5.296;2022-08-19T00:31:32;42.92;;;39.45;;
22881;SDS011;11608;50.894;5.296;2022-08-19T00:33:58;44.38;;;40.85;;
22881;SDS011;11608;50.894;5.296;2022-08-19T00:36:24;43.03;;;39.53;;
22881;SDS011;11608;50.894;5.296;2022-08-19T00:38:50;42.92;;;39.30;;
22881;SDS011;11608;50.894;5.296;2022-08-19T00:41:18;41.55;;;38.22;;
22881;SDS011;11608;50.894;5.296;2022-08-19T00:46:31;41.40;;;38.00;;
22881;SDS011;11608;50.894;5.296;2022-08-19T00:48:58;41.42;;;38.13;;
22881;SDS011;11608;50.894;5.296;2022-08-19T00:51:28;40.72;;;37.45;;
22881;SDS011;11608;50.894;5.296;2022-08-19T00:53:57;39.20;;;36.13;;
22881;SDS011;11608;50.894;5.296;2022-08-19T00:56:23;40.30;;;36.90;;
22881;SDS011;11608;50.894;5.296;2022-08-19T00:58:52;40.72;;;37.38;;
22881;SDS011;11608;50.894;5.296;2022-08-19T01:01:18;40.97;;;37.35;;
22881;SDS011;11608;50.894;5.296;2022-08-19T01:03:44;41.10;;;37.75;;
22881;SDS011;11608;50.894;5.296;2022-08-19T01:06:10;41.65;;;37.85;;
22881;SDS011;11608;50.894;5.296;2022-08-19T01:08:36;40.10;;;36.78;;
22881;SDS011;11608;50.894;5.296;2022-08-19T01:11:02;41.10;;;37.55;;
22881;SDS011;11608;50.894;5.296;2022-08-19T01:13:30;41.80;;;38.08;;
22881;SDS011;11608;50.894;5.296;2022-08-19T01:16:03;42.25;;;38.72;;
22881;SDS011;11608;50.894;5.296;2022-08-19T01:18:29;39.67;;;36.42;;
22881;SDS011;11608;50.894;5.296;2022-08-19T01:21:05;39.85;;;36.38;;
22881;SDS011;11608;50.894;5.296;2022-08-19T01:23:33;39.20;;;36.03;;
22881;SDS011;11608;50.894;5.296;2022-08-19T01:26:09;40.08;;;36.72;;
22881;SDS011;11608;50.894;5.296;2022-08-19T01:28:35;42.10;;;38.25;;
22881;SDS011;11608;50.894;5.296;2022-08-19T01:31:02;43.00;;;38.88;;
22881;SDS011;11608;50.894;5.296;2022-08-19T01:33:28;42.00;;;38.38;;
22881;SDS011;11608;50.894;5.296;2022-08-19T01:36:22;45.97;;;41.65;;
22881;SDS011;11608;50.894;5.296;2022-08-19T01:38:43;45.47;;;41.47;;
22881;SDS011;11608;50.894;5.296;2022-08-19T01:41:11;43.55;;;39.92;;
22881;SDS011;11608;50.894;5.296;2022-08-19T01:43:37;45.72;;;41.75;;
22881;SDS011;11608;50.894;5.296;2022-08-19T01:46:03;45.67;;;41.72;;
22881;SDS011;11608;50.894;5.296;2022-08-19T01:48:34;46.65;;;42.17;;
22881;SDS011;11608;50.894;5.296;2022-08-19T01:51:00;49.33;;;44.58;;
22881;SDS011;11608;50.894;5.296;2022-08-19T01:53:26;46.72;;;42.53;;
22881;SDS011;11608;50.894;5.296;2022-08-19T01:55:52;50.55;;;45.60;;
22881;SDS011;11608;50.894;5.296;2022-08-19T01:58:19;48.72;;;44.08;;
22881;SDS011;11608;50.894;5.296;2022-08-19T02:00:46;49.55;;;45.05;;
22881;SDS011;11608;50.894;5.296;2022-08-19T02:03:13;48.95;;;44.53;;
22881;SDS011;11608;50.894;5.296;2022-08-19T02:05:39;52.55;;;47.53;;
22881;SDS011;11608;50.894;5.296;2022-08-19T02:08:05;53.25;;;48.35;;
22881;SDS011;11608;50.894;5.296;2022-08-19T02:10:31;53.10;;;48.08;;
22881;SDS011;11608;50.894;5.296;2022-08-19T02:12:58;49.83;;;45.15;;
22881;SDS011;11608;50.894;5.296;2022-08-19T02:15:24;53.72;;;48.47;;
22881;SDS011;11608;50.894;5.296;2022-08-19T02:17:50;51.75;;;46.78;;
22881;SDS011;11608;50.894;5.296;2022-08-19T02:20:17;51.92;;;47.15;;
22881;SDS011;11608;50.894;5.296;2022-08-19T02:22:43;53.83;;;48.40;;
22881;SDS011;11608;50.894;5.296;2022-08-19T02:25:11;53.78;;;48.58;;
22881;SDS011;11608;50.894;5.296;2022-08-19T02:27:37;53.33;;;48.40;;
22881;SDS011;11608;50.894;5.296;2022-08-19T02:30:04;52.75;;;47.95;;
22881;SDS011;11608;50.894;5.296;2022-08-19T02:32:30;54.10;;;48.95;;
22881;SDS011;11608;50.894;5.296;2022-08-19T02:34:56;55.15;;;49.63;;
22881;SDS011;11608;50.894;5.296;2022-08-19T02:37:22;52.03;;;47.08;;
22881;SDS011;11608;50.894;5.296;2022-08-19T02:40:06;51.95;;;47.00;;
22881;SDS011;11608;50.894;5.296;2022-08-19T02:42:32;49.10;;;44.45;;
22881;SDS011;11608;50.894;5.296;2022-08-19T02:44:58;49.95;;;44.95;;
22881;SDS011;11608;50.894;5.296;2022-08-19T02:47:25;52.80;;;47.60;;
22881;SDS011;11608;50.894;5.296;2022-08-19T02:49:51;52.92;;;47.85;;
22881;SDS011;11608;50.894;5.296;2022-08-19T02:52:17;52.17;;;47.00;;
22881;SDS011;11608;50.894;5.296;2022-08-19T02:54:43;53.83;;;48.42;;
22881;SDS011;11608;50.894;5.296;2022-08-19T02:57:09;53.67;;;48.35;;
22881;SDS011;11608;50.894;5.296;2022-08-19T02:59:35;53.67;;;48.28;;
22881;SDS011;11608;50.894;5.296;2022-08-19T03:02:01;50.22;;;45.15;;
22881;SDS011;11608;50.894;5.296;2022-08-19T03:04:27;54.92;;;49.15;;
22881;SDS011;11608;50.894;5.296;2022-08-19T03:06:54;53.88;;;48.38;;
22881;SDS011;11608;50.894;5.296;2022-08-19T03:09:20;54.60;;;49.05;;
22881;SDS011;11608;50.894;5.296;2022-08-19T03:11:46;56.85;;;51.20;;
22881;SDS011;11608;50.894;5.296;2022-08-19T03:14:12;58.95;;;52.78;;
22881;SDS011;11608;50.894;5.296;2022-08-19T03:16:49;58.72;;;52.58;;
22881;SDS011;11608;50.894;5.296;2022-08-19T03:19:16;61.92;;;55.00;;
22881;SDS011;11608;50.894;5.296;2022-08-19T03:21:43;62.70;;;53.17;;
22881;SDS011;11608;50.894;5.296;2022-08-19T03:24:10;59.13;;;52.72;;
22881;SDS011;11608;50.894;5.296;2022-08-19T03:26:41;66.03;;;53.97;;
22881;SDS011;11608;50.894;5.296;2022-08-19T03:29:07;60.40;;;53.85;;
22881;SDS011;11608;50.894;5.296;2022-08-19T03:31:35;64.38;;;55.50;;
22881;SDS011;11608;50.894;5.296;2022-08-19T03:34:02;59.78;;;52.92;;
22881;SDS011;11608;50.894;5.296;2022-08-19T03:36:28;67.05;;;53.83;;
22881;SDS011;11608;50.894;5.296;2022-08-19T03:38:58;62.33;;;55.45;;
22881;SDS011;11608;50.894;5.296;2022-08-19T03:41:26;63.30;;;54.58;;
22881;SDS011;11608;50.894;5.296;2022-08-19T03:43:53;69.43;;;58.67;;
22881;SDS011;11608;50.894;5.296;2022-08-19T03:46:20;69.38;;;56.63;;
22881;SDS011;11608;50.894;5.296;2022-08-19T03:48:46;63.28;;;55.85;;
22881;SDS011;11608;50.894;5.296;2022-08-19T03:51:17;62.13;;;55.40;;
22881;SDS011;11608;50.894;5.296;2022-08-19T03:53:45;61.47;;;54.78;;
22881;SDS011;11608;50.894;5.296;2022-08-19T03:56:11;61.15;;;53.72;;
22881;SDS011;11608;50.894;5.296;2022-08-19T03:58:38;61.97;;;54.20;;
22881;SDS011;11608;50.894;5.296;2022-08-19T04:01:08;60.45;;;53.47;;
22881;SDS011;11608;50.894;5.296;2022-08-19T04:03:35;61.95;;;54.88;;
22881;SDS011;11608;50.894;5.296;2022-08-19T04:06:16;60.83;;;53.35;;
22881;SDS011;11608;50.894;5.296;2022-08-19T04:08:42;67.55;;;56.30;;
22881;SDS011;11608;50.894;5.296;2022-08-19T04:11:10;63.50;;;54.95;;
22881;SDS011;11608;50.894;5.296;2022-08-19T04:13:36;62.92;;;55.55;;
22881;SDS011;11608;50.894;5.296;2022-08-19T04:16:02;62.17;;;53.90;;
22881;SDS011;11608;50.894;5.296;2022-08-19T04:18:29;60.95;;;54.33;;
22881;SDS011;11608;50.894;5.296;2022-08-19T04:20:55;62.88;;;54.40;;
22881;SDS011;11608;50.894;5.296;2022-08-19T04:23:22;59.30;;;52.58;;
22881;SDS011;11608;50.894;5.296;2022-08-19T04:25:48;63.95;;;52.67;;
22881;SDS011;11608;50.894;5.296;2022-08-19T04:28:14;63.17;;;53.00;;
22881;SDS011;11608;50.894;5.296;2022-08-19T04:30:44;61.25;;;51.17;;
22881;SDS011;11608;50.894;5.296;2022-08-19T04:33:12;64.32;;;54.20;;
22881;SDS011;11608;50.894;5.296;2022-08-19T04:35:40;61.28;;;53.72;;
22881;SDS011;11608;50.894;5.296;2022-08-19T04:38:07;60.75;;;53.45;;
22881;SDS011;11608;50.894;5.296;2022-08-19T04:40:33;63.47;;;54.83;;
22881;SDS011;11608;50.894;5.296;2022-08-19T04:43:18;65.07;;;54.63;;
22881;SDS011;11608;50.894;5.296;2022-08-19T04:45:44;66.50;;;56.85;;
22881;SDS011;11608;50.894;5.296;2022-08-19T04:48:11;65.05;;;54.97;;
22881;SDS011;11608;50.894;5.296;2022-08-19T04:50:41;72.93;;;58.67;;
22881;SDS011;11608;50.894;5.296;2022-08-19T04:53:08;73.63;;;59.72;;
22881;SDS011;11608;50.894;5.296;2022-08-19T04:55:34;72.75;;;59.35;;
22881;SDS011;11608;50.894;5.296;2022-08-19T04:58:00;72.55;;;58.95;;
22881;SDS011;11608;50.894;5.296;2022-08-19T05:00:27;66.55;;;56.05;;
22881;SDS011;11608;50.894;5.296;2022-08-19T05:02:53;77.38;;;58.75;;
22881;SDS011;11608;50.894;5.296;2022-08-19T05:05:19;67.93;;;57.05;;
22881;SDS011;11608;50.894;5.296;2022-08-19T05:07:45;72.00;;;59.42;;
22881;SDS011;11608;50.894;5.296;2022-08-19T05:10:11;73.90;;;58.33;;
22881;SDS011;11608;50.894;5.296;2022-08-19T05:12:38;75.70;;;59.47;;
22881;SDS011;11608;50.894;5.296;2022-08-19T05:15:04;77.25;;;58.65;;
22881;SDS011;11608;50.894;5.296;2022-08-19T05:17:31;76.43;;;62.78;;
22881;SDS011;11608;50.894;5.296;2022-08-19T05:19:58;74.20;;;60.28;;
22881;SDS011;11608;50.894;5.296;2022-08-19T05:22:43;74.85;;;60.28;;
22881;SDS011;11608;50.894;5.296;2022-08-19T05:25:14;76.00;;;61.80;;
22881;SDS011;11608;50.894;5.296;2022-08-19T05:27:40;74.45;;;60.78;;
22881;SDS011;11608;50.894;5.296;2022-08-19T05:30:07;75.32;;;59.78;;
22881;SDS011;11608;50.894;5.296;2022-08-19T05:32:33;66.28;;;57.33;;
22881;SDS011;11608;50.894;5.296;2022-08-19T05:34:59;45.03;;;40.17;;
22881;SDS011;11608;50.894;5.296;2022-08-19T05:37:25;47.22;;;42.45;;
22881;SDS011;11608;50.894;5.296;2022-08-19T05:39:52;60.55;;;51.58;;
22881;SDS011;11608;50.894;5.296;2022-08-19T05:42:19;49.78;;;44.60;;
22881;SDS011;11608;50.894;5.296;2022-08-19T05:44:46;48.85;;;43.85;;
22881;SDS011;11608;50.894;5.296;2022-08-19T05:47:14;44.20;;;39.90;;
22881;SDS011;11608;50.894;5.296;2022-08-19T05:49:41;47.13;;;42.50;;
22881;SDS011;11608;50.894;5.296;2022-08-19T05:52:08;41.97;;;37.97;;
22881;SDS011;11608;50.894;5.296;2022-08-19T05:54:36;44.83;;;40.33;;
22881;SDS011;11608;50.894;5.296;2022-08-19T05:57:05;44.22;;;39.95;;
22881;SDS011;11608;50.894;5.296;2022-08-19T05:59:31;44.70;;;40.20;;
22881;SDS011;11608;50.894;5.296;2022-08-19T06:01:58;41.33;;;37.35;;
22881;SDS011;11608;50.894;5.296;2022-08-19T06:04:25;40.50;;;36.75;;
22881;SDS011;11608;50.894;5.296;2022-08-19T06:06:51;42.90;;;38.88;;
22881;SDS011;11608;50.894;5.296;2022-08-19T06:09:18;42.13;;;37.95;;
22881;SDS011;11608;50.894;5.296;2022-08-19T06:11:49;38.70;;;35.30;;
22881;SDS011;11608;50.894;5.296;2022-08-19T06:14:19;39.40;;;35.83;;
22881;SDS011;11608;50.894;5.296;2022-08-19T06:16:56;38.03;;;34.45;;
22881;SDS011;11608;50.894;5.296;2022-08-19T06:19:22;39.40;;;35.60;;
22881;SDS011;11608;50.894;5.296;2022-08-19T06:21:54;37.72;;;34.22;;
22881;SDS011;11608;50.894;5.296;2022-08-19T06:24:22;41.53;;;37.35;;
22881;SDS011;11608;50.894;5.296;2022-08-19T06:26:50;40.83;;;36.85;;
22881;SDS011;11608;50.894;5.296;2022-08-19T06:29:18;41.28;;;37.15;;
22881;SDS011;11608;50.894;5.296;2022-08-19T06:31:45;43.90;;;39.25;;
22881;SDS011;11608;50.894;5.296;2022-08-19T06:34:12;39.75;;;36.05;;
22881;SDS011;11608;50.894;5.296;2022-08-19T06:36:41;40.58;;;36.47;;
22881;SDS011;11608;50.894;5.296;2022-08-19T06:39:12;38.00;;;34.63;;
22881;SDS011;11608;50.894;5.296;2022-08-19T06:41:46;35.00;;;31.85;;
22881;SDS011;11608;50.894;5.296;2022-08-19T06:44:12;37.45;;;33.97;;
22881;SDS011;11608;50.894;5.296;2022-08-19T06:46:39;40.92;;;37.15;;
22881;SDS011;11608;50.894;5.296;2022-08-19T06:49:05;45.20;;;40.50;;
22881;SDS011;11608;50.894;5.296;2022-08-19T06:51:33;36.05;;;32.70;;
22881;SDS011;11608;50.894;5.296;2022-08-19T06:53:59;46.15;;;41.53;;
22881;SDS011;11608;50.894;5.296;2022-08-19T06:56:27;40.25;;;36.50;;
22881;SDS011;11608;50.894;5.296;2022-08-19T06:59:04;38.25;;;34.65;;
22881;SDS011;11608;50.894;5.296;2022-08-19T07:01:33;36.90;;;33.60;;
22881;SDS011;11608;50.894;5.296;2022-08-19T07:03:59;47.15;;;42.15;;
22881;SDS011;11608;50.894;5.296;2022-08-19T07:06:27;37.83;;;34.22;;
22881;SDS011;11608;50.894;5.296;2022-08-19T07:09:06;37.10;;;33.70;;
22881;SDS011;11608;50.894;5.296;2022-08-19T07:11:32;39.55;;;35.55;;
22881;SDS011;11608;50.894;5.296;2022-08-19T07:14:01;36.63;;;33.17;;
22881;SDS011;11608;50.894;5.296;2022-08-19T07:16:27;36.53;;;33.00;;
22881;SDS011;11608;50.894;5.296;2022-08-19T07:18:53;37.42;;;33.83;;
22881;SDS011;11608;50.894;5.296;2022-08-19T07:21:22;38.92;;;35.22;;
22881;SDS011;11608;50.894;5.296;2022-08-19T07:23:49;41.20;;;37.25;;
22881;SDS011;11608;50.894;5.296;2022-08-19T07:26:24;36.53;;;33.10;;
22881;SDS011;11608;50.894;5.296;2022-08-19T07:28:51;39.13;;;35.63;;
22881;SDS011;11608;50.894;5.296;2022-08-19T07:31:18;35.47;;;32.17;;
22881;SDS011;11608;50.894;5.296;2022-08-19T07:33:48;35.55;;;32.22;;
22881;SDS011;11608;50.894;5.296;2022-08-19T07:36:16;39.05;;;35.35;;
22881;SDS011;11608;50.894;5.296;2022-08-19T07:38:45;33.33;;;30.27;;
22881;SDS011;11608;50.894;5.296;2022-08-19T07:41:18;37.63;;;34.13;;
22881;SDS011;11608;50.894;5.296;2022-08-19T07:43:45;32.45;;;29.38;;
22881;SDS011;11608;50.894;5.296;2022-08-19T07:46:12;39.53;;;35.60;;
22881;SDS011;11608;50.894;5.296;2022-08-19T07:48:38;34.15;;;30.92;;
22881;SDS011;11608;50.894;5.296;2022-08-19T07:51:05;31.33;;;28.52;;
22881;SDS011;11608;50.894;5.296;2022-08-19T07:53:35;34.55;;;31.30;;
22881;SDS011;11608;50.894;5.296;2022-08-19T07:56:01;32.40;;;29.35;;
22881;SDS011;11608;50.894;5.296;2022-08-19T07:58:30;35.03;;;31.88;;
22881;SDS011;11608;50.894;5.296;2022-08-19T08:00:56;32.15;;;29.23;;
22881;SDS011;11608;50.894;5.296;2022-08-19T08:03:22;31.48;;;28.63;;
22881;SDS011;11608;50.894;5.296;2022-08-19T08:06:08;30.88;;;28.23;;
22881;SDS011;11608;50.894;5.296;2022-08-19T08:08:56;29.63;;;27.23;;
22881;SDS011;11608;50.894;5.296;2022-08-19T08:11:47;36.25;;;32.88;;
22881;SDS011;11608;50.894;5.296;2022-08-19T08:14:15;36.13;;;32.92;;
22881;SDS011;11608;50.894;5.296;2022-08-19T08:16:42;31.05;;;28.35;;
22881;SDS011;11608;50.894;5.296;2022-08-19T08:19:08;28.40;;;26.17;;
22881;SDS011;11608;50.894;5.296;2022-08-19T08:21:35;33.72;;;30.90;;
22881;SDS011;11608;50.894;5.296;2022-08-19T08:24:01;33.28;;;30.23;;
22881;SDS011;11608;50.894;5.296;2022-08-19T08:26:27;32.35;;;29.35;;
22881;SDS011;11608;50.894;5.296;2022-08-19T08:28:53;33.22;;;30.20;;
22881;SDS011;11608;50.894;5.296;2022-08-19T08:31:19;30.15;;;27.52;;
22881;SDS011;11608;50.894;5.296;2022-08-19T08:33:46;31.83;;;29.10;;
22881;SDS011;11608;50.894;5.296;2022-08-19T08:36:14;30.40;;;27.70;;
22881;SDS011;11608;50.894;5.296;2022-08-19T08:38:40;33.50;;;30.65;;
22881;SDS011;11608;50.894;5.296;2022-08-19T08:43:38;28.83;;;26.23;;
22881;SDS011;11608;50.894;5.296;2022-08-19T08:51:04;30.55;;;27.90;;
22881;SDS011;11608;50.894;5.296;2022-08-19T08:53:33;31.80;;;29.08;;
22881;SDS011;11608;50.894;5.296;2022-08-19T08:56:01;32.38;;;29.58;;
22881;SDS011;11608;50.894;5.296;2022-08-19T08:58:29;31.40;;;28.70;;
22881;SDS011;11608;50.894;5.296;2022-08-19T09:00:57;27.48;;;25.38;;
22881;SDS011;11608;50.894;5.296;2022-08-19T09:03:24;30.83;;;28.15;;
22881;SDS011;11608;50.894;5.296;2022-08-19T09:08:36;32.58;;;29.52;;
22881;SDS011;11608;50.894;5.296;2022-08-19T09:11:06;32.80;;;29.92;;
22881;SDS011;11608;50.894;5.296;2022-08-19T09:16:12;28.23;;;25.90;;
22881;SDS011;11608;50.894;5.296;2022-08-19T09:18:44;28.52;;;26.13;;
22881;SDS011;11608;50.894;5.296;2022-08-19T09:21:12;30.17;;;27.77;;
22881;SDS011;11608;50.894;5.296;2022-08-19T09:23:38;30.60;;;27.90;;
22881;SDS011;11608;50.894;5.296;2022-08-19T09:26:08;29.70;;;27.13;;
22881;SDS011;11608;50.894;5.296;2022-08-19T09:28:38;28.45;;;26.02;;
22881;SDS011;11608;50.894;5.296;2022-08-19T09:31:08;28.17;;;25.70;;
22881;SDS011;11608;50.894;5.296;2022-08-19T09:33:34;28.27;;;25.63;;
22881;SDS011;11608;50.894;5.296;2022-08-19T09:36:04;32.00;;;29.02;;
22881;SDS011;11608;50.894;5.296;2022-08-19T09:38:31;29.73;;;27.23;;
22881;SDS011;11608;50.894;5.296;2022-08-19T09:41:01;30.83;;;28.33;;
22881;SDS011;11608;50.894;5.296;2022-08-19T09:43:27;30.70;;;28.33;;
22881;SDS011;11608;50.894;5.296;2022-08-19T09:45:56;27.55;;;25.40;;
22881;SDS011;11608;50.894;5.296;2022-08-19T09:48:22;25.95;;;23.98;;
22881;SDS011;11608;50.894;5.296;2022-08-19T09:50:48;24.23;;;22.48;;
22881;SDS011;11608;50.894;5.296;2022-08-19T09:53:15;26.45;;;24.35;;
22881;SDS011;11608;50.894;5.296;2022-08-19T09:55:41;25.45;;;23.65;;
22881;SDS011;11608;50.894;5.296;2022-08-19T09:58:07;25.60;;;23.45;;
22881;SDS011;11608;50.894;5.296;2022-08-19T10:00:34;24.73;;;22.95;;
22881;SDS011;11608;50.894;5.296;2022-08-19T10:03:00;23.67;;;21.73;;
22881;SDS011;11608;50.894;5.296;2022-08-19T10:05:26;22.77;;;21.08;;
22881;SDS011;11608;50.894;5.296;2022-08-19T10:08:10;23.30;;;21.70;;
22881;SDS011;11608;50.894;5.296;2022-08-19T10:10:39;21.92;;;20.30;;
22881;SDS011;11608;50.894;5.296;2022-08-19T10:13:05;23.25;;;21.58;;
22881;SDS011;11608;50.894;5.296;2022-08-19T10:15:31;23.05;;;21.25;;
22881;SDS011;11608;50.894;5.296;2022-08-19T10:17:57;25.80;;;23.80;;
22881;SDS011;11608;50.894;5.296;2022-08-19T10:20:24;22.70;;;20.92;;
22881;SDS011;11608;50.894;5.296;2022-08-19T10:22:50;23.30;;;21.40;;
22881;SDS011;11608;50.894;5.296;2022-08-19T10:25:16;23.30;;;21.38;;
22881;SDS011;11608;50.894;5.296;2022-08-19T10:27:42;23.52;;;21.77;;
22881;SDS011;11608;50.894;5.296;2022-08-19T10:30:09;23.83;;;21.85;;
22881;SDS011;11608;50.894;5.296;2022-08-19T10:32:48;23.38;;;21.58;;
22881;SDS011;11608;50.894;5.296;2022-08-19T10:35:14;23.30;;;21.58;;
22881;SDS011;11608;50.894;5.296;2022-08-19T10:37:40;23.25;;;21.63;;
22881;SDS011;11608;50.894;5.296;2022-08-19T10:40:07;22.80;;;21.00;;
22881;SDS011;11608;50.894;5.296;2022-08-19T10:42:36;22.55;;;20.90;;
22881;SDS011;11608;50.894;5.296;2022-08-19T10:45:03;23.48;;;21.55;;
22881;SDS011;11608;50.894;5.296;2022-08-19T10:47:31;23.45;;;21.98;;
22881;SDS011;11608;50.894;5.296;2022-08-19T10:49:57;23.15;;;21.38;;
22881;SDS011;11608;50.894;5.296;2022-08-19T10:52:45;22.67;;;20.88;;
22881;SDS011;11608;50.894;5.296;2022-08-19T10:55:12;23.17;;;21.48;;
22881;SDS011;11608;50.894;5.296;2022-08-19T10:57:56;23.52;;;21.83;;
22881;SDS011;11608;50.894;5.296;2022-08-19T11:00:23;22.67;;;20.95;;
22881;SDS011;11608;50.894;5.296;2022-08-19T11:02:50;22.98;;;21.30;;
22881;SDS011;11608;50.894;5.296;2022-08-19T11:05:16;23.77;;;22.08;;
22881;SDS011;11608;50.894;5.296;2022-08-19T11:07:42;23.63;;;21.95;;
22881;SDS011;11608;50.894;5.296;2022-08-19T11:10:10;23.13;;;21.40;;
22881;SDS011;11608;50.894;5.296;2022-08-19T11:12:36;23.55;;;21.75;;
22881;SDS011;11608;50.894;5.296;2022-08-19T11:15:07;23.10;;;21.40;;
22881;SDS011;11608;50.894;5.296;2022-08-19T11:17:36;22.15;;;20.65;;
22881;SDS011;11608;50.894;5.296;2022-08-19T11:20:05;24.85;;;22.90;;
22881;SDS011;11608;50.894;5.296;2022-08-19T11:22:32;22.88;;;21.33;;
22881;SDS011;11608;50.894;5.296;2022-08-19T11:24:58;23.85;;;22.15;;
22881;SDS011;11608;50.894;5.296;2022-08-19T11:27:24;23.20;;;21.67;;
22881;SDS011;11608;50.894;5.296;2022-08-19T11:29:50;23.65;;;21.85;;
22881;SDS011;11608;50.894;5.296;2022-08-19T11:32:17;23.65;;;22.00;;
22881;SDS011;11608;50.894;5.296;2022-08-19T11:34:43;23.85;;;22.02;;
22881;SDS011;11608;50.894;5.296;2022-08-19T11:37:09;23.60;;;21.77;;
22881;SDS011;11608;50.894;5.296;2022-08-19T11:39:36;23.17;;;21.58;;
22881;SDS011;11608;50.894;5.296;2022-08-19T11:42:02;22.17;;;20.63;;
22881;SDS011;11608;50.894;5.296;2022-08-19T11:44:49;23.35;;;21.52;;
22881;SDS011;11608;50.894;5.296;2022-08-19T11:47:15;23.25;;;21.58;;
22881;SDS011;11608;50.894;5.296;2022-08-19T11:49:41;22.52;;;20.77;;
22881;SDS011;11608;50.894;5.296;2022-08-19T11:52:07;22.77;;;21.15;;
22881;SDS011;11608;50.894;5.296;2022-08-19T11:54:34;22.85;;;21.15;;
22881;SDS011;11608;50.894;5.296;2022-08-19T11:57:01;22.95;;;21.42;;
22881;SDS011;11608;50.894;5.296;2022-08-19T11:59:27;24.38;;;22.60;;
22881;SDS011;11608;50.894;5.296;2022-08-19T12:01:54;23.00;;;21.40;;
22881;SDS011;11608;50.894;5.296;2022-08-19T12:04:22;23.27;;;21.67;;
22881;SDS011;11608;50.894;5.296;2022-08-19T12:06:48;23.27;;;21.67;;
22881;SDS011;11608;50.894;5.296;2022-08-19T12:09:15;22.85;;;21.15;;
22881;SDS011;11608;50.894;5.296;2022-08-19T12:11:42;23.75;;;21.95;;
22881;SDS011;11608;50.894;5.296;2022-08-19T12:14:09;22.55;;;21.05;;
22881;SDS011;11608;50.894;5.296;2022-08-19T12:16:36;22.52;;;20.88;;
22881;SDS011;11608;50.894;5.296;2022-08-19T12:19:03;25.65;;;23.75;;
22881;SDS011;11608;50.894;5.296;2022-08-19T12:21:29;26.23;;;23.98;;
22881;SDS011;11608;50.894;5.296;2022-08-19T12:23:56;24.83;;;22.83;;
22881;SDS011;11608;50.894;5.296;2022-08-19T12:26:23;23.17;;;21.48;;
22881;SDS011;11608;50.894;5.296;2022-08-19T12:28:49;23.55;;;21.80;;
22881;SDS011;11608;50.894;5.296;2022-08-19T12:31:15;23.70;;;22.10;;
22881;SDS011;11608;50.894;5.296;2022-08-19T12:33:41;23.75;;;22.08;;
22881;SDS011;11608;50.894;5.296;2022-08-19T12:36:08;22.85;;;21.15;;
22881;SDS011;11608;50.894;5.296;2022-08-19T12:38:35;21.73;;;20.33;;
22881;SDS011;11608;50.894;5.296;2022-08-19T12:41:01;22.05;;;20.48;;
22881;SDS011;11608;50.894;5.296;2022-08-19T12:43:31;21.25;;;19.85;;
22881;SDS011;11608;50.894;5.296;2022-08-19T12:45:57;22.60;;;21.10;;
22881;SDS011;11608;50.894;5.296;2022-08-19T12:48:23;22.00;;;20.42;;
22881;SDS011;11608;50.894;5.296;2022-08-19T12:50:49;22.70;;;21.20;;
22881;SDS011;11608;50.894;5.296;2022-08-19T12:53:15;23.33;;;21.63;;
22881;SDS011;11608;50.894;5.296;2022-08-19T12:55:42;22.80;;;21.20;;
22881;SDS011;11608;50.894;5.296;2022-08-19T12:58:09;23.02;;;21.42;;
22881;SDS011;11608;50.894;5.296;2022-08-19T13:00:35;21.40;;;20.00;;
22881;SDS011;11608;50.894;5.296;2022-08-19T13:03:01;23.70;;;22.10;;
22881;SDS011;11608;50.894;5.296;2022-08-19T13:05:28;24.48;;;22.48;;
22881;SDS011;11608;50.894;5.296;2022-08-19T13:07:55;23.35;;;21.65;;
22881;SDS011;11608;50.894;5.296;2022-08-19T13:10:22;22.95;;;21.45;;
22881;SDS011;11608;50.894;5.296;2022-08-19T13:12:49;23.13;;;21.35;;
22881;SDS011;11608;50.894;5.296;2022-08-19T13:15:18;21.05;;;19.60;;
22881;SDS011;11608;50.894;5.296;2022-08-19T13:17:46;22.48;;;20.88;;
22881;SDS011;11608;50.894;5.296;2022-08-19T13:20:14;22.20;;;20.80;;
22881;SDS011;11608;50.894;5.296;2022-08-19T13:22:40;21.63;;;20.10;;
22881;SDS011;11608;50.894;5.296;2022-08-19T13:25:07;22.20;;;20.52;;
22881;SDS011;11608;50.894;5.296;2022-08-19T13:27:34;21.75;;;20.17;;
22881;SDS011;11608;50.894;5.296;2022-08-19T13:30:00;21.23;;;19.83;;
22881;SDS011;11608;50.894;5.296;2022-08-19T13:32:45;22.42;;;20.83;;
22881;SDS011;11608;50.894;5.296;2022-08-19T13:35:29;21.88;;;20.33;;
22881;SDS011;11608;50.894;5.296;2022-08-19T13:37:55;21.90;;;20.30;;
22881;SDS011;11608;50.894;5.296;2022-08-19T13:40:22;21.02;;;19.73;;
22881;SDS011;11608;50.894;5.296;2022-08-19T13:42:50;21.27;;;19.88;;
22881;SDS011;11608;50.894;5.296;2022-08-19T13:45:19;21.52;;;19.92;;
22881;SDS011;11608;50.894;5.296;2022-08-19T13:47:45;22.80;;;21.20;;
22881;SDS011;11608;50.894;5.296;2022-08-19T13:50:12;22.10;;;20.70;;
22881;SDS011;11608;50.894;5.296;2022-08-19T13:52:39;22.25;;;20.63;;
22881;SDS011;11608;50.894;5.296;2022-08-19T13:55:06;21.13;;;19.73;;
22881;SDS011;11608;50.894;5.296;2022-08-19T13:57:32;21.55;;;20.02;;
22881;SDS011;11608;50.894;5.296;2022-08-19T13:59:59;21.92;;;20.38;;
22881;SDS011;11608;50.894;5.296;2022-08-19T14:02:25;22.83;;;21.13;;
22881;SDS011;11608;50.894;5.296;2022-08-19T14:04:51;22.50;;;20.85;;
22881;SDS011;11608;50.894;5.296;2022-08-19T14:07:17;21.17;;;19.77;;
22881;SDS011;11608;50.894;5.296;2022-08-19T14:09:43;21.92;;;20.20;;
22881;SDS011;11608;50.894;5.296;2022-08-19T14:12:09;20.75;;;19.38;;
22881;SDS011;11608;50.894;5.296;2022-08-19T14:14:38;20.92;;;19.52;;
22881;SDS011;11608;50.894;5.296;2022-08-19T14:17:08;21.92;;;20.52;;
22881;SDS011;11608;50.894;5.296;2022-08-19T14:19:34;21.85;;;20.45;;
22881;SDS011;11608;50.894;5.296;2022-08-19T14:22:00;22.50;;;21.00;;
22881;SDS011;11608;50.894;5.296;2022-08-19T14:24:27;21.90;;;20.35;;
22881;SDS011;11608;50.894;5.296;2022-08-19T14:26:53;22.30;;;20.80;;
22881;SDS011;11608;50.894;5.296;2022-08-19T14:29:19;22.38;;;20.88;;
22881;SDS011;11608;50.894;5.296;2022-08-19T14:31:45;22.48;;;20.92;;
22881;SDS011;11608;50.894;5.296;2022-08-19T14:34:11;21.70;;;20.30;;
22881;SDS011;11608;50.894;5.296;2022-08-19T14:36:37;22.25;;;20.75;;
22881;SDS011;11608;50.894;5.296;2022-08-19T14:39:04;20.48;;;19.15;;
22881;SDS011;11608;50.894;5.296;2022-08-19T14:41:30;20.75;;;19.35;;